sensor_id;sensor_type;location;lat;lon;timestamp;P1;durP1;ratioP1;P2;durP2;ratioP2
15287;SDS011;7745;48.708;9.026;2023-06-19T00:01:03;8.25;;;7.15;;
15287;SDS011;7745;48.708;9.026;2023-06-19T00:03:30;7.82;;;7.07;;
15287;SDS011;7745;48.708;9.026;2023-06-19T00:05:57;8.20;;;7.40;;
15287;SDS011;7745;48.708;9.026;2023-06-19T00:08:23;9.45;;;7.10;;
15287;SDS011;7745;48.708;9.026;2023-06-19T00:10:50;8.15;;;7.30;;
15287;SDS011;7745;48.708;9.026;2023-06-19T00:13:18;8.40;;;7.60;;
15287;SDS011;7745;48.708;9.026;2023-06-19T00:15:46;8.35;;;7.63;;
15287;SDS011;7745;48.708;9.026;2023-06-19T00:18:13;9.02;;;8.10;;
15287;SDS011;7745;48.708;9.026;2023-06-19T00:20:41;8.37;;;7.10;;
15287;SDS011;7745;48.708;9.026;2023-06-19T00:23:11;8.68;;;7.63;;
15287;SDS011;7745;48.708;9.026;2023-06-19T00:25:39;8.27;;;7.45;;
15287;SDS011;7745;48.708;9.026;2023-06-19T00:28:06;8.48;;;7.47;;
15287;SDS011;7745;48.708;9.026;2023-06-19T00:30:37;8.23;;;7.43;;
15287;SDS011;7745;48.708;9.026;2023-06-19T00:33:04;8.73;;;7.50;;
15287;SDS011;7745;48.708;9.026;2023-06-19T00:35:31;9.48;;;7.35;;
15287;SDS011;7745;48.708;9.026;2023-06-19T00:37:58;8.75;;;7.65;;
15287;SDS011;7745;48.708;9.026;2023-06-19T00:40:26;8.10;;;7.40;;
15287;SDS011;7745;48.708;9.026;2023-06-19T00:42:54;8.02;;;7.30;;
15287;SDS011;7745;48.708;9.026;2023-06-19T00:45:21;9.87;;;7.30;;
15287;SDS011;7745;48.708;9.026;2023-06-19T00:47:50;8.03;;;7.33;;
15287;SDS011;7745;48.708;9.026;2023-06-19T00:50:18;8.02;;;7.15;;
15287;SDS011;7745;48.708;9.026;2023-06-19T00:52:45;8.32;;;7.45;;
15287;SDS011;7745;48.708;9.026;2023-06-19T00:55:12;9.00;;;7.77;;
15287;SDS011;7745;48.708;9.026;2023-06-19T00:57:40;8.60;;;7.80;;
15287;SDS011;7745;48.708;9.026;2023-06-19T01:00:08;8.73;;;7.90;;
15287;SDS011;7745;48.708;9.026;2023-06-19T01:02:37;10.20;;;7.80;;
15287;SDS011;7745;48.708;9.026;2023-06-19T01:05:06;7.97;;;7.27;;
15287;SDS011;7745;48.708;9.026;2023-06-19T01:07:35;9.03;;;7.57;;
15287;SDS011;7745;48.708;9.026;2023-06-19T01:10:09;8.80;;;7.37;;
15287;SDS011;7745;48.708;9.026;2023-06-19T01:12:38;7.93;;;7.23;;
15287;SDS011;7745;48.708;9.026;2023-06-19T01:15:13;7.90;;;6.70;;
15287;SDS011;7745;48.708;9.026;2023-06-19T01:17:40;7.00;;;6.30;;
15287;SDS011;7745;48.708;9.026;2023-06-19T01:20:09;8.50;;;6.07;;
15287;SDS011;7745;48.708;9.026;2023-06-19T01:22:38;8.13;;;6.17;;
15287;SDS011;7745;48.708;9.026;2023-06-19T01:25:08;7.47;;;6.43;;
15287;SDS011;7745;48.708;9.026;2023-06-19T01:27:35;6.73;;;5.90;;
15287;SDS011;7745;48.708;9.026;2023-06-19T01:30:03;6.63;;;5.90;;
15287;SDS011;7745;48.708;9.026;2023-06-19T01:32:31;6.27;;;5.73;;
15287;SDS011;7745;48.708;9.026;2023-06-19T01:35:04;6.13;;;5.53;;
15287;SDS011;7745;48.708;9.026;2023-06-19T01:37:34;7.17;;;5.60;;
15287;SDS011;7745;48.708;9.026;2023-06-19T01:40:04;6.50;;;5.70;;
15287;SDS011;7745;48.708;9.026;2023-06-19T01:42:34;8.13;;;5.30;;
15287;SDS011;7745;48.708;9.026;2023-06-19T01:45:03;5.73;;;5.23;;
15287;SDS011;7745;48.708;9.026;2023-06-19T01:47:31;7.33;;;5.13;;
15287;SDS011;7745;48.708;9.026;2023-06-19T01:49:58;5.10;;;4.67;;
15287;SDS011;7745;48.708;9.026;2023-06-19T01:52:25;5.60;;;5.03;;
15287;SDS011;7745;48.708;9.026;2023-06-19T01:54:52;6.60;;;4.47;;
15287;SDS011;7745;48.708;9.026;2023-06-19T01:57:20;7.43;;;5.17;;
15287;SDS011;7745;48.708;9.026;2023-06-19T01:59:47;6.10;;;4.80;;
15287;SDS011;7745;48.708;9.026;2023-06-19T02:02:14;5.70;;;4.80;;
15287;SDS011;7745;48.708;9.026;2023-06-19T02:04:40;5.03;;;4.53;;
15287;SDS011;7745;48.708;9.026;2023-06-19T02:07:07;5.67;;;4.20;;
15287;SDS011;7745;48.708;9.026;2023-06-19T02:09:34;7.00;;;4.60;;
15287;SDS011;7745;48.708;9.026;2023-06-19T02:12:02;4.90;;;4.40;;
15287;SDS011;7745;48.708;9.026;2023-06-19T02:14:30;4.90;;;4.50;;
15287;SDS011;7745;48.708;9.026;2023-06-19T02:16:57;5.47;;;4.80;;
15287;SDS011;7745;48.708;9.026;2023-06-19T02:19:23;5.53;;;4.80;;
15287;SDS011;7745;48.708;9.026;2023-06-19T02:21:50;4.83;;;4.43;;
15287;SDS011;7745;48.708;9.026;2023-06-19T02:24:17;4.93;;;4.37;;
15287;SDS011;7745;48.708;9.026;2023-06-19T02:26:44;5.33;;;4.57;;
15287;SDS011;7745;48.708;9.026;2023-06-19T02:29:11;4.57;;;4.00;;
15287;SDS011;7745;48.708;9.026;2023-06-19T02:31:39;4.90;;;4.40;;
15287;SDS011;7745;48.708;9.026;2023-06-19T02:34:07;6.63;;;4.07;;
15287;SDS011;7745;48.708;9.026;2023-06-19T02:36:34;4.90;;;3.73;;
15287;SDS011;7745;48.708;9.026;2023-06-19T02:39:01;7.50;;;3.97;;
15287;SDS011;7745;48.708;9.026;2023-06-19T02:41:28;4.10;;;3.80;;
15287;SDS011;7745;48.708;9.026;2023-06-19T02:43:54;6.13;;;4.20;;
15287;SDS011;7745;48.708;9.026;2023-06-19T02:46:21;4.93;;;3.73;;
15287;SDS011;7745;48.708;9.026;2023-06-19T02:48:49;3.80;;;3.50;;
15287;SDS011;7745;48.708;9.026;2023-06-19T02:51:16;4.20;;;3.87;;
15287;SDS011;7745;48.708;9.026;2023-06-19T02:53:43;3.80;;;3.50;;
15287;SDS011;7745;48.708;9.026;2023-06-19T02:56:10;4.43;;;3.57;;
15287;SDS011;7745;48.708;9.026;2023-06-19T02:58:37;5.77;;;3.70;;
15287;SDS011;7745;48.708;9.026;2023-06-19T03:01:04;7.20;;;3.90;;
15287;SDS011;7745;48.708;9.026;2023-06-19T03:03:32;3.70;;;3.40;;
15287;SDS011;7745;48.708;9.026;2023-06-19T03:06:05;5.40;;;3.47;;
15287;SDS011;7745;48.708;9.026;2023-06-19T03:08:32;3.67;;;3.37;;
15287;SDS011;7745;48.708;9.026;2023-06-19T03:10:59;3.83;;;3.17;;
15287;SDS011;7745;48.708;9.026;2023-06-19T03:13:29;3.43;;;3.13;;
15287;SDS011;7745;48.708;9.026;2023-06-19T03:15:55;3.50;;;2.97;;
15287;SDS011;7745;48.708;9.026;2023-06-19T03:18:22;3.60;;;3.30;;
15287;SDS011;7745;48.708;9.026;2023-06-19T03:20:49;4.13;;;3.50;;
15287;SDS011;7745;48.708;9.026;2023-06-19T03:23:17;4.30;;;3.20;;
15287;SDS011;7745;48.708;9.026;2023-06-19T03:25:44;3.40;;;3.10;;
15287;SDS011;7745;48.708;9.026;2023-06-19T03:28:11;3.30;;;3.00;;
15287;SDS011;7745;48.708;9.026;2023-06-19T03:30:37;3.37;;;3.07;;
15287;SDS011;7745;48.708;9.026;2023-06-19T03:33:04;4.00;;;3.60;;
15287;SDS011;7745;48.708;9.026;2023-06-19T03:35:31;3.33;;;3.07;;
15287;SDS011;7745;48.708;9.026;2023-06-19T03:37:58;4.03;;;3.30;;
15287;SDS011;7745;48.708;9.026;2023-06-19T03:40:26;4.13;;;3.40;;
15287;SDS011;7745;48.708;9.026;2023-06-19T03:42:53;3.57;;;3.27;;
15287;SDS011;7745;48.708;9.026;2023-06-19T03:45:19;3.40;;;3.10;;
15287;SDS011;7745;48.708;9.026;2023-06-19T03:47:46;5.17;;;3.37;;
15287;SDS011;7745;48.708;9.026;2023-06-19T03:50:13;4.00;;;3.20;;
15287;SDS011;7745;48.708;9.026;2023-06-19T03:52:40;4.33;;;3.87;;
15287;SDS011;7745;48.708;9.026;2023-06-19T03:55:07;4.57;;;3.50;;
15287;SDS011;7745;48.708;9.026;2023-06-19T03:57:35;4.10;;;3.80;;
15287;SDS011;7745;48.708;9.026;2023-06-19T04:00:02;4.07;;;3.50;;
15287;SDS011;7745;48.708;9.026;2023-06-19T04:02:32;4.23;;;3.33;;
15287;SDS011;7745;48.708;9.026;2023-06-19T04:04:59;5.43;;;3.80;;
15287;SDS011;7745;48.708;9.026;2023-06-19T04:07:26;5.10;;;3.53;;
15287;SDS011;7745;48.708;9.026;2023-06-19T04:09:53;4.73;;;3.60;;
15287;SDS011;7745;48.708;9.026;2023-06-19T04:12:20;4.40;;;3.80;;
15287;SDS011;7745;48.708;9.026;2023-06-19T04:14:48;4.77;;;4.00;;
15287;SDS011;7745;48.708;9.026;2023-06-19T04:17:15;5.17;;;3.80;;
15287;SDS011;7745;48.708;9.026;2023-06-19T04:19:41;4.90;;;3.70;;
15287;SDS011;7745;48.708;9.026;2023-06-19T04:22:08;5.00;;;3.50;;
15287;SDS011;7745;48.708;9.026;2023-06-19T04:24:35;3.90;;;3.50;;
15287;SDS011;7745;48.708;9.026;2023-06-19T04:27:02;4.70;;;3.40;;
15287;SDS011;7745;48.708;9.026;2023-06-19T04:29:29;5.17;;;3.70;;
15287;SDS011;7745;48.708;9.026;2023-06-19T04:31:58;4.97;;;3.60;;
15287;SDS011;7745;48.708;9.026;2023-06-19T04:34:25;5.43;;;3.77;;
15287;SDS011;7745;48.708;9.026;2023-06-19T04:36:52;8.63;;;3.13;;
15287;SDS011;7745;48.708;9.026;2023-06-19T04:39:23;3.93;;;3.30;;
15287;SDS011;7745;48.708;9.026;2023-06-19T04:41:50;3.97;;;3.47;;
15287;SDS011;7745;48.708;9.026;2023-06-19T04:44:17;3.40;;;3.10;;
15287;SDS011;7745;48.708;9.026;2023-06-19T04:46:44;3.37;;;3.07;;
15287;SDS011;7745;48.708;9.026;2023-06-19T04:49:13;4.73;;;3.20;;
15287;SDS011;7745;48.708;9.026;2023-06-19T04:51:40;3.80;;;3.50;;
15287;SDS011;7745;48.708;9.026;2023-06-19T04:54:07;3.53;;;3.20;;
15287;SDS011;7745;48.708;9.026;2023-06-19T04:56:34;3.50;;;3.20;;
15287;SDS011;7745;48.708;9.026;2023-06-19T04:59:01;4.10;;;3.70;;
15287;SDS011;7745;48.708;9.026;2023-06-19T05:01:27;3.77;;;3.30;;
15287;SDS011;7745;48.708;9.026;2023-06-19T05:03:55;3.37;;;3.07;;
15287;SDS011;7745;48.708;9.026;2023-06-19T05:06:25;5.20;;;3.50;;
15287;SDS011;7745;48.708;9.026;2023-06-19T05:08:52;3.27;;;2.97;;
15287;SDS011;7745;48.708;9.026;2023-06-19T05:11:19;3.80;;;3.50;;
15287;SDS011;7745;48.708;9.026;2023-06-19T05:13:46;4.03;;;3.63;;
15287;SDS011;7745;48.708;9.026;2023-06-19T05:16:13;3.43;;;3.13;;
15287;SDS011;7745;48.708;9.026;2023-06-19T05:18:41;3.70;;;3.40;;
15287;SDS011;7745;48.708;9.026;2023-06-19T05:21:08;3.27;;;2.97;;
15287;SDS011;7745;48.708;9.026;2023-06-19T05:23:37;4.93;;;3.23;;
15287;SDS011;7745;48.708;9.026;2023-06-19T05:26:04;4.10;;;3.10;;
15287;SDS011;7745;48.708;9.026;2023-06-19T05:28:31;4.80;;;3.17;;
15287;SDS011;7745;48.708;9.026;2023-06-19T05:30:58;4.00;;;3.70;;
15287;SDS011;7745;48.708;9.026;2023-06-19T05:33:24;3.83;;;3.50;;
15287;SDS011;7745;48.708;9.026;2023-06-19T05:35:51;3.97;;;3.00;;
15287;SDS011;7745;48.708;9.026;2023-06-19T05:38:19;4.03;;;3.60;;
15287;SDS011;7745;48.708;9.026;2023-06-19T05:40:47;4.40;;;2.87;;
15287;SDS011;7745;48.708;9.026;2023-06-19T05:43:14;4.73;;;3.10;;
15287;SDS011;7745;48.708;9.026;2023-06-19T05:45:41;3.27;;;2.97;;
15287;SDS011;7745;48.708;9.026;2023-06-19T05:48:08;3.50;;;2.90;;
15287;SDS011;7745;48.708;9.026;2023-06-19T05:50:34;3.53;;;3.20;;
15287;SDS011;7745;48.708;9.026;2023-06-19T05:53:01;3.30;;;2.83;;
15287;SDS011;7745;48.708;9.026;2023-06-19T05:55:28;3.00;;;2.70;;
15287;SDS011;7745;48.708;9.026;2023-06-19T05:57:56;3.47;;;2.90;;
15287;SDS011;7745;48.708;9.026;2023-06-19T06:00:23;3.27;;;2.97;;
15287;SDS011;7745;48.708;9.026;2023-06-19T06:02:50;3.10;;;2.70;;
15287;SDS011;7745;48.708;9.026;2023-06-19T06:05:16;4.90;;;2.80;;
15287;SDS011;7745;48.708;9.026;2023-06-19T06:07:45;2.93;;;2.63;;
15287;SDS011;7745;48.708;9.026;2023-06-19T06:10:12;3.50;;;2.60;;
15287;SDS011;7745;48.708;9.026;2023-06-19T06:12:39;4.35;;;3.05;;
15287;SDS011;7745;48.708;9.026;2023-06-19T06:15:07;3.45;;;2.88;;
15287;SDS011;7745;48.708;9.026;2023-06-19T06:17:34;2.83;;;2.60;;
15287;SDS011;7745;48.708;9.026;2023-06-19T06:20:01;4.13;;;2.88;;
15287;SDS011;7745;48.708;9.026;2023-06-19T06:22:32;2.90;;;2.70;;
15287;SDS011;7745;48.708;9.026;2023-06-19T06:24:59;3.03;;;2.80;;
15287;SDS011;7745;48.708;9.026;2023-06-19T06:27:26;2.63;;;2.35;;
15287;SDS011;7745;48.708;9.026;2023-06-19T06:29:52;2.33;;;2.10;;
15287;SDS011;7745;48.708;9.026;2023-06-19T06:32:21;3.88;;;2.72;;
15287;SDS011;7745;48.708;9.026;2023-06-19T06:34:47;2.75;;;2.55;;
15287;SDS011;7745;48.708;9.026;2023-06-19T06:37:14;3.05;;;2.10;;
15287;SDS011;7745;48.708;9.026;2023-06-19T06:39:47;2.63;;;2.40;;
15287;SDS011;7745;48.708;9.026;2023-06-19T06:42:14;3.08;;;2.78;;
15287;SDS011;7745;48.708;9.026;2023-06-19T06:44:41;2.47;;;2.28;;
15287;SDS011;7745;48.708;9.026;2023-06-19T06:47:08;2.42;;;2.22;;
15287;SDS011;7745;48.708;9.026;2023-06-19T06:49:36;2.53;;;2.33;;
15287;SDS011;7745;48.708;9.026;2023-06-19T06:52:03;3.60;;;2.28;;
15287;SDS011;7745;48.708;9.026;2023-06-19T06:54:30;5.07;;;2.30;;
15287;SDS011;7745;48.708;9.026;2023-06-19T06:56:57;2.35;;;2.15;;
15287;SDS011;7745;48.708;9.026;2023-06-19T06:59:24;2.78;;;2.55;;
15287;SDS011;7745;48.708;9.026;2023-06-19T07:01:52;2.53;;;2.33;;
15287;SDS011;7745;48.708;9.026;2023-06-19T07:04:18;4.72;;;2.47;;
15287;SDS011;7745;48.708;9.026;2023-06-19T07:06:48;2.22;;;2.03;;
15287;SDS011;7745;48.708;9.026;2023-06-19T07:09:15;2.47;;;2.28;;
15287;SDS011;7745;48.708;9.026;2023-06-19T07:11:41;2.33;;;2.03;;
15287;SDS011;7745;48.708;9.026;2023-06-19T07:14:08;3.45;;;2.40;;
15287;SDS011;7745;48.708;9.026;2023-06-19T07:16:35;3.58;;;2.40;;
15287;SDS011;7745;48.708;9.026;2023-06-19T07:19:02;2.33;;;2.13;;
15287;SDS011;7745;48.708;9.026;2023-06-19T07:21:29;3.15;;;2.65;;
15287;SDS011;7745;48.708;9.026;2023-06-19T07:23:58;2.90;;;2.53;;
15287;SDS011;7745;48.708;9.026;2023-06-19T07:26:25;3.22;;;2.30;;
15287;SDS011;7745;48.708;9.026;2023-06-19T07:28:52;3.30;;;3.00;;
15287;SDS011;7745;48.708;9.026;2023-06-19T07:31:19;3.95;;;2.70;;
15287;SDS011;7745;48.708;9.026;2023-06-19T07:33:46;2.63;;;2.42;;
15287;SDS011;7745;48.708;9.026;2023-06-19T07:36:13;2.90;;;2.70;;
15287;SDS011;7745;48.708;9.026;2023-06-19T07:38:41;2.63;;;2.40;;
15287;SDS011;7745;48.708;9.026;2023-06-19T07:41:09;5.60;;;2.83;;
15287;SDS011;7745;48.708;9.026;2023-06-19T07:43:36;2.60;;;2.40;;
15287;SDS011;7745;48.708;9.026;2023-06-19T07:46:03;3.72;;;2.72;;
15287;SDS011;7745;48.708;9.026;2023-06-19T07:48:30;3.05;;;2.58;;
15287;SDS011;7745;48.708;9.026;2023-06-19T07:50:57;5.00;;;2.83;;
15287;SDS011;7745;48.708;9.026;2023-06-19T07:53:24;4.75;;;3.05;;
15287;SDS011;7745;48.708;9.026;2023-06-19T07:55:51;3.42;;;2.70;;
15287;SDS011;7745;48.708;9.026;2023-06-19T07:58:19;4.50;;;3.08;;
15287;SDS011;7745;48.708;9.026;2023-06-19T08:00:47;3.08;;;2.78;;
15287;SDS011;7745;48.708;9.026;2023-06-19T08:03:14;3.70;;;3.30;;
15287;SDS011;7745;48.708;9.026;2023-06-19T08:05:40;5.20;;;3.13;;
15287;SDS011;7745;48.708;9.026;2023-06-19T08:08:07;3.72;;;3.22;;
15287;SDS011;7745;48.708;9.026;2023-06-19T08:10:34;5.78;;;3.13;;
15287;SDS011;7745;48.708;9.026;2023-06-19T08:13:01;3.42;;;3.13;;
15287;SDS011;7745;48.708;9.026;2023-06-19T08:15:29;3.60;;;3.30;;
15287;SDS011;7745;48.708;9.026;2023-06-19T08:17:56;3.20;;;2.88;;
15287;SDS011;7745;48.708;9.026;2023-06-19T08:20:22;3.42;;;3.08;;
15287;SDS011;7745;48.708;9.026;2023-06-19T08:22:49;5.25;;;3.10;;
15287;SDS011;7745;48.708;9.026;2023-06-19T08:25:16;5.72;;;3.58;;
15287;SDS011;7745;48.708;9.026;2023-06-19T08:27:43;4.47;;;3.05;;
15287;SDS011;7745;48.708;9.026;2023-06-19T08:30:10;4.15;;;3.05;;
15287;SDS011;7745;48.708;9.026;2023-06-19T08:32:38;4.45;;;3.00;;
15287;SDS011;7745;48.708;9.026;2023-06-19T08:35:05;3.33;;;2.95;;
15287;SDS011;7745;48.708;9.026;2023-06-19T08:37:32;3.28;;;2.67;;
15287;SDS011;7745;48.708;9.026;2023-06-19T08:39:59;3.90;;;2.80;;
15287;SDS011;7745;48.708;9.026;2023-06-19T08:42:29;2.80;;;2.60;;
15287;SDS011;7745;48.708;9.026;2023-06-19T08:44:55;3.00;;;2.70;;
15287;SDS011;7745;48.708;9.026;2023-06-19T08:47:22;4.00;;;2.65;;
15287;SDS011;7745;48.708;9.026;2023-06-19T08:49:56;2.58;;;2.38;;
15287;SDS011;7745;48.708;9.026;2023-06-19T08:52:24;2.80;;;2.60;;
15287;SDS011;7745;48.708;9.026;2023-06-19T08:54:51;3.65;;;2.97;;
15287;SDS011;7745;48.708;9.026;2023-06-19T08:57:17;2.85;;;2.65;;
15287;SDS011;7745;48.708;9.026;2023-06-19T08:59:47;3.30;;;2.45;;
15287;SDS011;7745;48.708;9.026;2023-06-19T09:02:14;2.78;;;2.58;;
15287;SDS011;7745;48.708;9.026;2023-06-19T09:04:41;4.18;;;2.80;;
15287;SDS011;7745;48.708;9.026;2023-06-19T09:07:09;4.20;;;2.67;;
15287;SDS011;7745;48.708;9.026;2023-06-19T09:09:43;3.35;;;3.03;;
15287;SDS011;7745;48.708;9.026;2023-06-19T09:12:12;4.20;;;2.75;;
15287;SDS011;7745;48.708;9.026;2023-06-19T09:14:40;3.45;;;2.90;;
15287;SDS011;7745;48.708;9.026;2023-06-19T09:17:11;2.60;;;2.40;;
15287;SDS011;7745;48.708;9.026;2023-06-19T09:19:46;2.72;;;2.13;;
15287;SDS011;7745;48.708;9.026;2023-06-19T09:22:16;2.25;;;2.05;;
15287;SDS011;7745;48.708;9.026;2023-06-19T09:24:44;2.00;;;1.90;;
15287;SDS011;7745;48.708;9.026;2023-06-19T09:27:11;2.08;;;1.88;;
15287;SDS011;7745;48.708;9.026;2023-06-19T09:29:39;2.85;;;2.40;;
15287;SDS011;7745;48.708;9.026;2023-06-19T09:32:14;5.65;;;2.63;;
15287;SDS011;7745;48.708;9.026;2023-06-19T09:34:41;4.45;;;2.17;;
15287;SDS011;7745;48.708;9.026;2023-06-19T09:37:08;5.55;;;2.90;;
15287;SDS011;7745;48.708;9.026;2023-06-19T09:39:37;9.07;;;2.67;;
15287;SDS011;7745;48.708;9.026;2023-06-19T09:42:06;2.35;;;2.15;;
15287;SDS011;7745;48.708;9.026;2023-06-19T09:44:37;2.65;;;2.38;;
15287;SDS011;7745;48.708;9.026;2023-06-19T09:47:09;2.78;;;2.50;;
15287;SDS011;7745;48.708;9.026;2023-06-19T09:49:45;2.53;;;2.20;;
15287;SDS011;7745;48.708;9.026;2023-06-19T09:52:15;2.70;;;2.25;;
15287;SDS011;7745;48.708;9.026;2023-06-19T09:54:45;2.60;;;2.05;;
15287;SDS011;7745;48.708;9.026;2023-06-19T09:57:12;2.80;;;2.55;;
15287;SDS011;7745;48.708;9.026;2023-06-19T09:59:39;3.13;;;2.40;;
15287;SDS011;7745;48.708;9.026;2023-06-19T10:02:07;2.20;;;2.10;;
15287;SDS011;7745;48.708;9.026;2023-06-19T10:04:41;2.75;;;2.10;;
15287;SDS011;7745;48.708;9.026;2023-06-19T10:07:14;2.65;;;2.45;;
15287;SDS011;7745;48.708;9.026;2023-06-19T10:09:55;2.50;;;1.95;;
15287;SDS011;7745;48.708;9.026;2023-06-19T10:12:35;3.42;;;2.30;;
15287;SDS011;7745;48.708;9.026;2023-06-19T10:15:09;2.60;;;2.40;;
15287;SDS011;7745;48.708;9.026;2023-06-19T10:17:44;4.43;;;2.35;;
15287;SDS011;7745;48.708;9.026;2023-06-19T10:20:22;2.92;;;2.28;;
15287;SDS011;7745;48.708;9.026;2023-06-19T10:22:51;2.75;;;2.55;;
15287;SDS011;7745;48.708;9.026;2023-06-19T10:25:23;2.85;;;2.55;;
15287;SDS011;7745;48.708;9.026;2023-06-19T10:27:50;2.90;;;2.70;;
15287;SDS011;7745;48.708;9.026;2023-06-19T10:30:18;3.75;;;2.53;;
15287;SDS011;7745;48.708;9.026;2023-06-19T10:32:45;2.90;;;2.65;;
15287;SDS011;7745;48.708;9.026;2023-06-19T10:35:12;3.05;;;2.80;;
15287;SDS011;7745;48.708;9.026;2023-06-19T10:37:40;2.60;;;2.40;;
15287;SDS011;7745;48.708;9.026;2023-06-19T10:40:07;2.42;;;2.22;;
15287;SDS011;7745;48.708;9.026;2023-06-19T10:42:37;3.45;;;2.50;;
15287;SDS011;7745;48.708;9.026;2023-06-19T10:45:05;2.97;;;2.75;;
15287;SDS011;7745;48.708;9.026;2023-06-19T10:47:34;3.47;;;3.17;;
15287;SDS011;7745;48.708;9.026;2023-06-19T10:50:01;3.75;;;3.45;;
15287;SDS011;7745;48.708;9.026;2023-06-19T10:52:28;3.80;;;3.33;;
15287;SDS011;7745;48.708;9.026;2023-06-19T10:54:55;4.80;;;3.10;;
15287;SDS011;7745;48.708;9.026;2023-06-19T10:57:26;7.32;;;3.60;;
15287;SDS011;7745;48.708;9.026;2023-06-19T10:59:55;3.50;;;3.20;;
15287;SDS011;7745;48.708;9.026;2023-06-19T11:02:23;3.63;;;3.08;;
15287;SDS011;7745;48.708;9.026;2023-06-19T11:04:51;3.90;;;3.00;;
15287;SDS011;7745;48.708;9.026;2023-06-19T11:07:19;3.35;;;2.80;;
15287;SDS011;7745;48.708;9.026;2023-06-19T11:09:47;3.28;;;3.05;;
15287;SDS011;7745;48.708;9.026;2023-06-19T11:12:18;3.95;;;3.50;;
15287;SDS011;7745;48.708;9.026;2023-06-19T11:14:45;3.40;;;3.08;;
15287;SDS011;7745;48.708;9.026;2023-06-19T11:17:14;3.22;;;2.90;;
15287;SDS011;7745;48.708;9.026;2023-06-19T11:19:43;5.70;;;3.17;;
15287;SDS011;7745;48.708;9.026;2023-06-19T11:22:10;4.00;;;3.47;;
15287;SDS011;7745;48.708;9.026;2023-06-19T11:24:42;5.13;;;3.53;;
15287;SDS011;7745;48.708;9.026;2023-06-19T11:27:15;5.28;;;3.38;;
15287;SDS011;7745;48.708;9.026;2023-06-19T11:29:43;3.67;;;3.38;;
15287;SDS011;7745;48.708;9.026;2023-06-19T11:32:12;3.55;;;2.90;;
15287;SDS011;7745;48.708;9.026;2023-06-19T11:34:47;3.35;;;3.10;;
15287;SDS011;7745;48.708;9.026;2023-06-19T11:37:15;5.68;;;3.33;;
15287;SDS011;7745;48.708;9.026;2023-06-19T11:39:43;3.90;;;3.53;;
15287;SDS011;7745;48.708;9.026;2023-06-19T11:42:10;3.53;;;3.22;;
15287;SDS011;7745;48.708;9.026;2023-06-19T11:44:51;3.10;;;2.90;;
15287;SDS011;7745;48.708;9.026;2023-06-19T11:47:20;3.53;;;3.08;;
15287;SDS011;7745;48.708;9.026;2023-06-19T11:49:47;3.38;;;2.92;;
15287;SDS011;7745;48.708;9.026;2023-06-19T11:52:14;3.92;;;3.42;;
15287;SDS011;7745;48.708;9.026;2023-06-19T11:54:41;3.67;;;3.25;;
15287;SDS011;7745;48.708;9.026;2023-06-19T11:57:08;4.07;;;3.45;;
15287;SDS011;7745;48.708;9.026;2023-06-19T11:59:37;3.70;;;3.17;;
15287;SDS011;7745;48.708;9.026;2023-06-19T12:02:04;4.65;;;3.67;;
15287;SDS011;7745;48.708;9.026;2023-06-19T12:04:32;5.75;;;3.30;;
15287;SDS011;7745;48.708;9.026;2023-06-19T12:07:00;3.72;;;3.30;;
15287;SDS011;7745;48.708;9.026;2023-06-19T12:09:29;3.63;;;3.30;;
15287;SDS011;7745;48.708;9.026;2023-06-19T12:11:56;4.18;;;3.70;;
15287;SDS011;7745;48.708;9.026;2023-06-19T12:14:23;4.07;;;3.20;;
15287;SDS011;7745;48.708;9.026;2023-06-19T12:16:51;4.07;;;3.20;;
15287;SDS011;7745;48.708;9.026;2023-06-19T12:19:18;3.47;;;3.17;;
15287;SDS011;7745;48.708;9.026;2023-06-19T12:21:46;3.42;;;3.13;;
15287;SDS011;7745;48.708;9.026;2023-06-19T12:24:13;3.85;;;3.17;;
15287;SDS011;7745;48.708;9.026;2023-06-19T12:26:40;4.32;;;3.15;;
15287;SDS011;7745;48.708;9.026;2023-06-19T12:29:07;4.00;;;3.70;;
15287;SDS011;7745;48.708;9.026;2023-06-19T12:31:34;3.78;;;3.50;;
15287;SDS011;7745;48.708;9.026;2023-06-19T12:34:02;3.40;;;3.10;;
15287;SDS011;7745;48.708;9.026;2023-06-19T12:36:29;4.57;;;2.88;;
15287;SDS011;7745;48.708;9.026;2023-06-19T12:38:58;5.70;;;3.33;;
15287;SDS011;7745;48.708;9.026;2023-06-19T12:41:25;4.97;;;3.22;;
15287;SDS011;7745;48.708;9.026;2023-06-19T12:43:52;3.30;;;3.00;;
15287;SDS011;7745;48.708;9.026;2023-06-19T12:46:19;3.78;;;3.03;;
15287;SDS011;7745;48.708;9.026;2023-06-19T12:48:46;3.42;;;3.13;;
15287;SDS011;7745;48.708;9.026;2023-06-19T12:51:15;3.70;;;3.33;;
15287;SDS011;7745;48.708;9.026;2023-06-19T12:53:43;3.42;;;3.13;;
15287;SDS011;7745;48.708;9.026;2023-06-19T12:56:11;3.17;;;2.88;;
15287;SDS011;7745;48.708;9.026;2023-06-19T12:58:37;3.80;;;2.90;;
15287;SDS011;7745;48.708;9.026;2023-06-19T13:01:04;3.83;;;3.50;;
15287;SDS011;7745;48.708;9.026;2023-06-19T13:03:31;2.97;;;2.78;;
15287;SDS011;7745;48.708;9.026;2023-06-19T13:05:58;3.25;;;2.95;;
15287;SDS011;7745;48.708;9.026;2023-06-19T13:08:25;3.35;;;3.08;;
15287;SDS011;7745;48.708;9.026;2023-06-19T13:10:51;4.20;;;3.28;;
15287;SDS011;7745;48.708;9.026;2023-06-19T13:13:20;3.22;;;3.03;;
15287;SDS011;7745;48.708;9.026;2023-06-19T13:15:46;3.55;;;3.25;;
15287;SDS011;7745;48.708;9.026;2023-06-19T13:18:13;5.70;;;3.10;;
15287;SDS011;7745;48.708;9.026;2023-06-19T13:20:40;3.72;;;3.10;;
15287;SDS011;7745;48.708;9.026;2023-06-19T13:23:07;4.13;;;2.90;;
15287;SDS011;7745;48.708;9.026;2023-06-19T13:25:34;3.78;;;2.92;;
15287;SDS011;7745;48.708;9.026;2023-06-19T13:28:00;4.03;;;3.17;;
15287;SDS011;7745;48.708;9.026;2023-06-19T13:30:28;4.15;;;3.30;;
15287;SDS011;7745;48.708;9.026;2023-06-19T13:32:55;3.58;;;3.28;;
15287;SDS011;7745;48.708;9.026;2023-06-19T13:35:22;3.28;;;2.97;;
15287;SDS011;7745;48.708;9.026;2023-06-19T13:37:49;2.97;;;2.78;;
15287;SDS011;7745;48.708;9.026;2023-06-19T13:40:15;3.22;;;2.92;;
15287;SDS011;7745;48.708;9.026;2023-06-19T13:42:42;3.53;;;3.17;;
15287;SDS011;7745;48.708;9.026;2023-06-19T13:45:09;3.47;;;3.17;;
15287;SDS011;7745;48.708;9.026;2023-06-19T13:47:38;3.83;;;3.40;;
15287;SDS011;7745;48.708;9.026;2023-06-19T13:50:05;5.10;;;3.20;;
15287;SDS011;7745;48.708;9.026;2023-06-19T13:52:34;3.30;;;2.47;;
15287;SDS011;7745;48.708;9.026;2023-06-19T13:55:01;3.83;;;3.03;;
15287;SDS011;7745;48.708;9.026;2023-06-19T13:57:29;3.35;;;2.95;;
15287;SDS011;7745;48.708;9.026;2023-06-19T13:59:55;4.40;;;2.83;;
15287;SDS011;7745;48.708;9.026;2023-06-19T14:02:23;4.32;;;2.80;;
15287;SDS011;7745;48.708;9.026;2023-06-19T14:04:51;3.22;;;2.85;;
15287;SDS011;7745;48.708;9.026;2023-06-19T14:07:18;3.63;;;2.63;;
15287;SDS011;7745;48.708;9.026;2023-06-19T14:09:47;3.50;;;2.65;;
15287;SDS011;7745;48.708;9.026;2023-06-19T14:12:14;3.13;;;2.90;;
15287;SDS011;7745;48.708;9.026;2023-06-19T14:14:41;4.50;;;2.95;;
15287;SDS011;7745;48.708;9.026;2023-06-19T14:17:07;3.00;;;2.75;;
15287;SDS011;7745;48.708;9.026;2023-06-19T14:19:34;3.72;;;3.00;;
15287;SDS011;7745;48.708;9.026;2023-06-19T14:22:02;3.17;;;2.88;;
15287;SDS011;7745;48.708;9.026;2023-06-19T14:24:29;3.65;;;3.03;;
15287;SDS011;7745;48.708;9.026;2023-06-19T14:26:56;3.45;;;2.85;;
15287;SDS011;7745;48.708;9.026;2023-06-19T14:29:23;3.65;;;2.97;;
15287;SDS011;7745;48.708;9.026;2023-06-19T14:31:50;4.82;;;3.00;;
15287;SDS011;7745;48.708;9.026;2023-06-19T14:34:18;4.78;;;2.92;;
15287;SDS011;7745;48.708;9.026;2023-06-19T14:36:45;4.72;;;2.92;;
15287;SDS011;7745;48.708;9.026;2023-06-19T14:39:13;4.70;;;3.38;;
15287;SDS011;7745;48.708;9.026;2023-06-19T14:41:41;3.75;;;3.15;;
15287;SDS011;7745;48.708;9.026;2023-06-19T14:44:08;4.93;;;3.00;;
15287;SDS011;7745;48.708;9.026;2023-06-19T14:46:34;3.83;;;3.00;;
15287;SDS011;7745;48.708;9.026;2023-06-19T14:49:04;3.33;;;3.03;;
15287;SDS011;7745;48.708;9.026;2023-06-19T14:51:32;3.38;;;3.08;;
15287;SDS011;7745;48.708;9.026;2023-06-19T14:53:59;3.15;;;2.88;;
15287;SDS011;7745;48.708;9.026;2023-06-19T14:56:27;3.38;;;2.92;;
15287;SDS011;7745;48.708;9.026;2023-06-19T14:58:54;4.05;;;2.70;;
15287;SDS011;7745;48.708;9.026;2023-06-19T15:01:21;3.47;;;2.70;;
15287;SDS011;7745;48.708;9.026;2023-06-19T15:03:48;3.00;;;2.80;;